Time;durP1;ratioP1;P1;durP2;ratioP2;P2;SDS_P1;SDS_P2;PMS_P1;PMS_P2;Temp;Humidity;BMP_temperature;BMP_pressure;BME280_temperature;BME280_humidity;BME280_pressure;Samples;Min_cycle;Max_cycle;Signal;HPM_P1;HPM_P2
2023/04/15 00:08:19;;;;;;;2.00;1.40;;;;;;;9.63;81.63;97738.78;272258;1269;22539;-89
2023/04/15 00:16:00;;;;;;;2.40;1.70;;;;;;;9.54;81.34;97751.95;269487;1269;24226;-89
2023/04/15 00:30:29;;;;;;;;;;;;;;;;;;;;;
2023/04/15 00:37:54;;;;;;;3.20;1.60;;;;;;;9.02;81.89;97762.82;272086;1270;22331;-88
2023/04/15 00:52:01;;;;;;;2.00;1.40;;;;;;;8.88;82.28;97747.64;271217;1270;22483;-88
2023/04/15 01:07:29;;;;;;;3.20;1.30;;;;;;;9.09;81.83;97749.38;271027;1269;22613;-88
2023/04/15 01:13:40;;;;;;;3.00;1.20;;;;;;;9.14;81.69;97760.05;269966;1271;22547;-88
2023/04/15 01:21:53;;;;;;;2.60;1.00;;;;;;;9.08;81.58;97759.67;269049;1276;23785;-88
2023/04/15 01:30:20;;;;;;;2.60;0.90;;;;;;;8.99;81.67;97763.68;269186;1275;22588;-88
2023/04/15 01:37:47;;;;;;;3.60;1.60;;;;;;;8.87;82.20;97776.73;271124;1266;22544;-88
2023/04/15 01:45:01;;;;;;;2.20;1.20;;;;;;;8.68;82.26;97772.30;270315;1267;22525;-88
2023/04/15 01:52:32;;;;;;;4.00;1.20;;;;;;;8.57;82.82;97768.41;270500;1267;23898;-88
2023/04/15 02:00:18;;;;;;;;;;;;;;;;;;;;;
2023/04/15 02:08:02;;;;;;;4.60;1.70;;;;;;;8.21;83.12;97791.07;269150;1266;22540;-88
2023/04/15 02:16:03;;;;;;;1.70;1.30;;;;;;;8.05;83.28;97797.33;271163;1271;22340;-89
2023/04/15 02:23:22;;;;;;;3.80;1.30;;;;;;;7.98;84.00;97796.46;272579;1271;22567;-88
2023/04/15 02:31:17;;;;;;;2.10;1.40;;;;;;;7.74;84.03;97810.72;273088;1271;22458;-90
2023/04/15 02:46:22;;;;;;;1.80;1.30;;;;;;;7.64;84.47;97817.07;270124;1268;22640;-89
2023/04/15 02:53:19;;;;;;;1.50;1.40;;;;;;;7.43;84.67;97820.78;273496;1268;23117;-89
2023/04/15 03:01:13;;;;;;;4.90;2.40;;;;;;;7.26;84.92;97813.30;273913;1268;22305;-89
2023/04/15 03:08:50;;;;;;;5.30;2.10;;;;;;;7.04;85.54;97815.13;271516;1268;22620;-87
2023/04/15 03:23:31;;;;;;;3.20;1.80;;;;;;;6.96;86.56;97826.13;270973;1268;22540;-89
2023/04/15 03:31:16;;;;;;;10.90;4.10;;;;;;;6.70;86.78;97840.39;271499;1268;22313;-90
2023/04/15 03:38:21;;;;;;;8.00;3.40;;;;;;;6.52;87.01;97848.78;273967;1268;22448;-90
2023/04/15 03:44:23;;;;;;;10.00;3.50;;;;;;;6.39;87.60;97848.43;272013;1268;22652;-89
2023/04/15 03:50:25;;;;;;;9.60;3.20;;;;;;;6.31;87.91;97858.06;270532;1268;22551;-89
2023/04/15 03:56:32;;;;;;;9.20;4.00;;;;;;;6.23;88.07;97875.15;269963;1267;22539;-90
2023/04/15 04:02:34;;;;;;;8.90;3.80;;;;;;;6.24;89.09;97889.36;270318;1265;22298;-89
2023/04/15 04:08:36;;;;;;;6.60;3.20;;;;;;;6.26;89.70;97895.67;269973;1267;23275;-89
2023/04/15 04:14:38;;;;;;;7.60;3.90;;;;;;;6.25;90.03;97903.97;271869;1266;25330;-88
2023/04/15 04:20:40;;;;;;;7.20;3.80;;;;;;;6.20;90.22;97904.31;269831;1266;22555;-88
2023/04/15 04:27:09;;;;;;;7.00;4.50;;;;;;;6.20;90.82;97906.95;270352;1267;25365;-89
2023/04/15 04:33:15;;;;;;;13.30;5.20;;;;;;;6.20;90.98;97916.11;270451;1268;22529;-89
2023/04/15 04:39:46;;;;;;;11.40;4.90;;;;;;;6.21;91.45;97920.94;273584;1268;22436;-89
2023/04/15 04:46:14;;;;;;;10.30;4.60;;;;;;;6.28;91.77;97922.48;273825;1267;23025;-88
2023/04/15 04:53:29;;;;;;;7.60;3.80;;;;;;;6.48;92.66;97915.08;270838;1273;22573;-89
2023/04/15 05:00:49;;;;;;;6.20;4.30;;;;;;;6.69;92.91;97918.23;269208;1271;22531;-89
2023/04/15 05:09:01;;;;;;;6.50;3.60;;;;;;;6.98;92.93;97922.29;269958;1262;23228;-88
2023/04/15 05:16:35;;;;;;;6.70;3.30;;;;;;;7.30;93.49;97926.42;268336;1280;22585;-88
2023/04/15 05:23:46;;;;;;;7.60;3.80;;;;;;;7.50;93.57;97929.73;269565;1267;24216;-88
2023/04/15 05:30:13;;;;;;;13.50;11.10;;;;;;;7.70;93.45;97940.36;271822;1269;22612;-87
2023/04/15 05:37:08;;;;;;;11.70;6.10;;;;;;;7.92;93.51;97947.55;265789;1261;5294248;-89
2023/04/15 05:44:46;;;;;;;16.30;6.00;;;;;;;8.37;93.41;97947.68;269513;1272;22557;-89
2023/04/15 06:08:59;;;;;;;5.40;2.90;;;;;;;9.99;90.46;97942.98;268631;1278;22587;-88
2023/04/15 06:16:51;;;;;;;3.80;2.60;;;;;;;10.58;89.07;97949.39;270703;1283;22369;-88
2023/04/15 06:24:04;;;;;;;4.70;2.80;;;;;;;10.86;87.74;97963.69;269455;1282;22612;-87
2023/04/15 06:31:40;;;;;;;5.90;3.30;;;;;;;11.14;86.61;97969.21;268675;1276;25280;-88
2023/04/15 06:46:47;;;;;;;5.90;2.90;;;;;;;11.48;85.24;97971.04;273281;1268;21942;-90
2023/04/15 06:54:19;;;;;;;3.20;2.30;;;;;;;11.74;84.71;97979.14;271985;1266;23381;-89
2023/04/15 07:01:55;;;;;;;3.10;2.10;;;;;;;11.90;83.56;97983.12;272343;1269;22551;-88
2023/04/15 07:23:10;;;;;;;2.50;1.50;;;;;;;12.50;80.05;98009.65;273517;1268;22312;-91
2023/04/15 07:30:41;;;;;;;2.60;1.10;;;;;;;12.60;78.91;98014.54;273164;1267;22397;-91
2023/04/15 07:37:39;;;;;;;2.20;1.20;;;;;;;12.83;78.25;98018.64;273474;1268;23099;-89
2023/04/15 07:44:45;;;;;;;3.80;1.30;;;;;;;12.99;77.05;98021.88;273307;1268;22339;-87
2023/04/15 07:51:34;;;;;;;3.40;1.40;;;;;;;13.08;76.69;98025.77;273679;1270;22364;-88
2023/04/15 07:58:00;;;;;;;2.90;1.30;;;;;;;13.04;76.91;98026.13;273804;1271;22391;-87
2023/04/15 08:04:54;;;;;;;2.20;1.40;;;;;;;13.08;75.34;98030.48;273945;1271;22212;-89
2023/04/15 08:11:25;;;;;;;6.60;2.00;;;;;;;13.43;74.90;98033.16;273959;1269;22289;-88
2023/04/15 08:42:09;;;;;;;2.70;1.70;;;;;;;14.17;71.39;98043.86;269615;1276;22590;-92
2023/04/15 08:49:57;;;;;;;3.10;1.60;;;;;;;14.21;69.34;98041.13;269791;1276;22535;-88
2023/04/15 08:57:42;;;;;;;3.30;1.50;;;;;;;14.53;68.36;98038.25;270103;1286;22676;-89
2023/04/15 09:05:16;;;;;;;2.40;1.60;;;;;;;15.26;68.63;98032.81;268746;1281;25322;-87
2023/04/15 09:11:39;;;;;;;1.90;1.60;;;;;;;16.35;67.84;98029.00;267682;1283;22684;-86
2023/04/15 09:18:00;;;;;;;4.60;2.10;;;;;;;17.11;65.65;98022.34;267456;1284;22575;-86
2023/04/15 09:25:04;;;;;;;5.10;2.00;;;;;;;17.35;64.96;98020.81;271304;1273;22238;-86
2023/04/15 09:31:46;;;;;;;5.20;1.70;;;;;;;17.39;63.64;98019.84;272889;1275;23862;-87
2023/04/15 09:38:38;;;;;;;2.90;1.50;;;;;;;17.95;63.84;98015.14;272437;1273;23720;-90
2023/04/15 09:45:54;;;;;;;2.80;1.40;;;;;;;17.94;61.88;98011.39;272595;1276;22441;-86
2023/04/15 09:53:56;;;;;;;1.80;1.10;;;;;;;18.14;59.51;98010.04;272081;1279;22340;-85
2023/04/15 10:01:03;;;;;;;1.80;1.50;;;;;;;18.74;58.76;98007.34;271044;1275;22627;-88
2023/04/15 10:07:12;;;;;;;3.20;2.10;;;;;;;19.57;57.66;98002.25;272550;1280;22422;-87
2023/04/15 10:13:40;;;;;;;5.40;2.40;;;;;;;19.68;55.93;98007.24;272076;1277;22189;-87
2023/04/15 10:27:44;;;;;;;2.90;1.90;;;;;;;17.38;55.42;98010.90;273730;1272;22200;-85
2023/04/15 10:34:29;;;;;;;3.80;1.80;;;;;;;17.15;54.92;98004.13;273372;1269;23642;-86
2023/04/15 10:49:25;;;;;;;3.90;1.40;;;;;;;15.75;52.72;98009.27;271483;1273;22217;-88
2023/04/15 10:56:27;;;;;;;2.30;1.50;;;;;;;15.30;53.15;98008.79;272639;1268;22562;-88
2023/04/15 11:03:54;;;;;;;2.30;1.20;;;;;;;15.00;52.90;98012.55;272401;1276;22642;-88
2023/04/15 11:10:35;;;;;;;2.60;1.30;;;;;;;14.92;53.26;98015.80;269800;1270;22557;-86
2023/04/15 11:18:23;;;;;;;1.80;1.20;;;;;;;15.52;54.08;98016.67;269682;1272;22536;-88
2023/04/15 11:25:37;;;;;;;1.70;1.10;;;;;;;17.16;52.55;98019.28;269388;1273;22563;-88
2023/04/15 11:32:28;;;;;;;1.50;1.00;;;;;;;18.18;52.49;98022.96;270626;1272;22414;-88
2023/04/15 11:40:06;;;;;;;2.00;1.20;;;;;;;18.25;50.81;98029.54;272808;1273;23504;-84
2023/04/15 11:47:21;;;;;;;3.20;1.00;;;;;;;17.71;51.04;98029.69;272380;1272;22567;-88
2023/04/15 11:54:28;;;;;;;1.70;1.10;;;;;;;17.40;50.65;98032.20;271223;1278;22300;-89
2023/04/15 12:02:34;;;;;;;1.50;1.00;;;;;;;17.30;50.23;98032.73;271390;1284;23985;-89
2023/04/15 12:17:16;;;;;;;3.10;1.40;;;;;;;16.72;48.94;98040.95;271788;1270;22951;-88
2023/04/15 12:23:51;;;;;;;1.70;1.20;;;;;;;16.49;49.68;98040.73;273081;1271;22232;-86
2023/04/15 12:31:16;;;;;;;3.60;1.40;;;;;;;16.72;49.71;98043.71;273116;1270;22249;-87
2023/04/15 12:37:44;;;;;;;1.60;1.20;;;;;;;16.63;49.29;98043.02;273046;1267;22321;-87
2023/04/15 12:44:07;;;;;;;2.50;1.20;;;;;;;16.68;49.55;98043.90;273685;1267;23477;-88
2023/04/15 13:14:11;;;;;;;2.60;1.40;;;;;;;17.13;49.16;98045.41;270373;1269;22410;-86
2023/04/15 13:21:33;;;;;;;2.00;1.20;;;;;;;17.46;48.98;98044.54;272164;1270;22620;-89
2023/04/15 13:35:21;;;;;;;1.90;1.10;;;;;;;17.09;47.79;98045.07;273001;1270;22255;-86
2023/04/15 13:42:04;;;;;;;1.80;1.20;;;;;;;16.78;47.49;98049.77;272265;1270;22213;-87
2023/04/15 13:48:43;;;;;;;4.30;2.10;;;;;;;16.67;47.19;98048.04;270544;1270;22626;-90
2023/04/15 14:03:19;;;;;;;2.90;1.30;;;;;;;16.69;47.50;98046.21;272805;1267;22193;-87
2023/04/15 14:10:28;;;;;;;1.60;1.00;;;;;;;17.16;47.11;98045.24;273511;1267;22383;-89
2023/04/15 14:18:17;;;;;;;2.30;1.20;;;;;;;17.52;47.32;98045.44;272455;1267;22330;-88
2023/04/15 14:25:58;;;;;;;1.80;1.40;;;;;;;17.60;46.62;98047.77;271021;1274;22482;-85
2023/04/15 14:40:39;;;;;;;13.30;7.20;;;;;;;17.66;46.54;98049.88;269786;1274;22379;-89
2023/04/15 14:48:15;;;;;;;7.40;4.40;;;;;;;17.79;46.73;98052.15;268827;1273;23143;-87
2023/04/15 14:55:47;;;;;;;3.50;1.80;;;;;;;17.41;46.18;98049.38;269741;1275;22329;-88
2023/04/15 15:02:27;;;;;;;5.70;4.10;;;;;;;16.96;46.06;98063.48;269073;1275;22535;-87
2023/04/15 15:09:51;;;;;;;5.20;2.90;;;;;;;16.05;46.39;98082.17;270276;1272;22328;-89
2023/04/15 15:17:35;;;;;;;45.90;21.70;;;;;;;15.38;47.25;98088.03;271085;1273;23085;-88
2023/04/15 15:24:46;;;;;;;2.20;2.00;;;;;;;14.99;47.84;98099.48;270793;1273;25406;-89
2023/04/15 15:31:36;;;;;;;5.40;2.80;;;;;;;14.76;48.37;98108.39;272108;1269;22706;-88
2023/04/15 15:45:40;;;;;;;4.80;3.20;;;;;;;14.52;49.71;98122.53;273131;1269;22230;-90
2023/04/15 15:51:55;;;;;;;3.30;2.80;;;;;;;14.14;51.16;98124.21;273229;1269;22499;-90
2023/04/15 15:58:14;;;;;;;5.00;3.00;;;;;;;13.69;52.63;98133.17;271692;1269;22493;-90
2023/04/15 16:36:34;;;;;;;4.70;3.80;;;;;;;12.17;57.82;98213.61;273308;1272;22400;-88
2023/04/15 16:43:57;;;;;;;9.40;4.50;;;;;;;11.66;60.58;98213.55;272823;1273;22364;-87
2023/04/15 16:50:39;;;;;;;3.80;2.30;;;;;;;11.11;61.41;98204.54;270689;1280;22638;-90
2023/04/15 16:56:58;;;;;;;;;;;;;;;;;;;;;
2023/04/15 17:03:02;;;;;;;2.50;1.90;;;;;;;10.37;66.70;98197.51;271123;1270;23661;-89
2023/04/15 17:09:21;;;;;;;4.80;3.10;;;;;;;10.05;67.18;98202.42;270344;1269;22806;-87
2023/04/15 17:15:23;;;;;;;6.00;3.10;;;;;;;10.05;68.47;98215.92;272356;1266;22538;-88
2023/04/15 17:21:46;;;;;;;6.20;3.90;;;;;;;10.03;69.20;98228.11;272065;1268;22283;-88
2023/04/15 17:27:51;;;;;;;6.40;3.70;;;;;;;9.88;68.73;98242.46;273782;1267;22293;-89
2023/04/15 17:34:17;;;;;;;;;;;;;;;;;;;;;
2023/04/15 17:41:06;;;;;;;12.20;6.50;;;;;;;9.51;69.06;98261.51;272372;1267;929317;-88
2023/04/15 17:47:09;;;;;;;11.60;7.20;;;;;;;9.34;69.80;98275.87;273736;1267;22558;-88
2023/04/15 17:53:39;;;;;;;11.40;7.60;;;;;;;9.19;69.94;98285.95;271119;1267;22546;-87
2023/04/15 18:00:08;;;;;;;11.60;7.60;;;;;;;9.06;70.78;98298.11;273062;1267;22336;-87
2023/04/15 18:06:26;;;;;;;15.80;8.90;;;;;;;8.95;71.56;98306.86;273582;1269;22273;-88
2023/04/15 18:12:50;;;;;;;13.40;8.90;;;;;;;8.82;72.35;98318.47;273469;1269;22625;-87
2023/04/15 18:18:56;;;;;;;14.00;9.80;;;;;;;8.64;73.92;98333.84;273746;1269;22188;-87
2023/04/15 18:25:02;;;;;;;17.10;10.00;;;;;;;8.48;74.98;98349.52;273795;1268;22186;-88
2023/04/15 18:31:22;;;;;;;14.50;9.20;;;;;;;8.34;75.13;98355.48;273589;1269;22324;-88
2023/04/15 18:37:25;;;;;;;13.30;9.60;;;;;;;8.21;76.30;98357.58;265776;1268;10001829;-88
2023/04/15 18:43:28;;;;;;;15.40;9.60;;;;;;;8.17;77.56;98357.77;273586;1266;22226;-87
2023/04/15 18:49:51;;;;;;;15.10;9.50;;;;;;;7.99;77.34;98372.05;272619;1268;24367;-87
2023/04/15 18:56:30;;;;;;;17.60;10.80;;;;;;;7.77;78.17;98382.23;273449;1269;23169;-87
2023/04/15 19:02:47;;;;;;;15.20;9.50;;;;;;;7.69;78.45;98387.11;273714;1267;22356;-89
2023/04/15 19:09:01;;;;;;;49.10;27.20;;;;;;;7.56;78.65;98394.48;272976;1269;22223;-88
2023/04/15 19:15:06;;;;;;;35.10;19.20;;;;;;;7.29;79.03;98404.39;273676;1269;22361;-88
2023/04/15 19:21:48;;;;;;;31.30;17.60;;;;;;;7.09;78.94;98410.69;273455;1268;22606;-88
2023/04/15 19:28:18;;;;;;;24.60;14.30;;;;;;;6.80;79.57;98413.72;272772;1268;22338;-87
2023/04/15 19:34:36;;;;;;;27.00;16.60;;;;;;;6.60;79.61;98423.25;273691;1268;22420;-87
2023/04/15 19:40:43;;;;;;;21.10;14.30;;;;;;;6.54;81.36;98438.29;273668;1271;23210;-89
2023/04/15 19:46:48;;;;;;;25.20;16.20;;;;;;;6.39;81.86;98443.92;272751;1268;22414;-88
2023/04/15 19:52:52;;;;;;;36.90;23.10;;;;;;;6.17;82.03;98448.32;273678;1268;22276;-87
2023/04/15 19:59:11;;;;;;;34.50;20.40;;;;;;;6.02;81.80;98454.61;273653;1269;22377;-88
2023/04/15 20:05:16;;;;;;;32.50;20.40;;;;;;;5.99;83.49;98462.79;273673;1267;22342;-88
2023/04/15 20:11:44;;;;;;;27.60;17.20;;;;;;;6.03;84.01;98471.40;272331;1271;22563;-87
2023/04/15 20:17:47;;;;;;;41.10;23.90;;;;;;;6.03;84.44;98476.60;273184;1269;23578;-88
2023/04/15 20:23:50;;;;;;;37.50;24.30;;;;;;;5.87;84.62;98479.61;272787;1267;22563;-87
2023/04/15 20:29:54;;;;;;;50.90;26.30;;;;;;;5.79;85.33;98481.81;270697;1267;23205;-87
2023/04/15 20:36:05;;;;;;;36.90;21.10;;;;;;;5.70;85.27;98483.71;270657;1268;22553;-87
2023/04/15 20:42:32;;;;;;;38.70;21.40;;;;;;;5.61;85.67;98487.39;271495;1267;23398;-87
2023/04/15 20:48:35;;;;;;;42.70;23.50;;;;;;;5.55;86.31;98490.20;271691;1268;22294;-88
2023/04/15 20:54:37;;;;;;;42.30;23.50;;;;;;;5.44;86.74;98493.27;273865;1268;22330;-87
2023/04/15 21:00:48;;;;;;;35.60;20.70;;;;;;;5.44;86.97;98500.73;273905;1257;22453;-87
2023/04/15 21:06:52;;;;;;;32.20;19.40;;;;;;;5.33;86.25;98509.22;273798;1267;22198;-87
2023/04/15 21:12:54;;;;;;;40.50;23.30;;;;;;;5.20;86.91;98514.73;272835;1268;22267;-88
2023/04/15 21:19:17;;;;;;;42.50;24.60;;;;;;;5.06;87.30;98525.46;271139;1267;22388;-88
2023/04/15 21:25:21;;;;;;;35.00;21.10;;;;;;;4.99;88.39;98529.31;273944;1269;22220;-87
2023/04/15 21:31:25;;;;;;;36.40;20.30;;;;;;;5.05;89.19;98533.82;273743;1268;22375;-87
2023/04/15 21:37:50;;;;;;;45.10;25.20;;;;;;;5.10;88.68;98544.26;273762;1266;22229;-87
2023/04/15 21:43:52;;;;;;;43.60;25.70;;;;;;;5.00;88.74;98552.45;271561;1268;22281;-87
2023/04/15 21:49:54;;;;;;;48.10;29.00;;;;;;;4.87;88.66;98559.61;270485;1266;22595;-87
2023/04/15 21:55:56;;;;;;;47.90;29.10;;;;;;;4.73;89.31;98569.93;270221;1267;23288;-88
2023/04/15 22:01:58;;;;;;;45.40;24.00;;;;;;;4.72;90.02;98575.47;270979;1267;22395;-87
2023/04/15 22:08:03;;;;;;;40.30;22.30;;;;;;;4.73;89.99;98578.86;273743;1266;22997;-89
2023/04/15 22:14:48;;;;;;;;;;;;;;;4.57;89.85;98583.06;272904;1269;22540;-87
2023/04/15 22:21:49;;;;;;;39.30;23.00;;;;;;;4.55;90.48;98588.79;272746;1256;22261;-87
2023/04/15 22:27:51;;;;;;;41.90;25.10;;;;;;;4.60;91.20;98594.59;273695;1268;22327;-88
2023/04/15 22:33:53;;;;;;;47.80;29.30;;;;;;;4.64;91.34;98594.65;273987;1271;23462;-87
2023/04/15 22:39:56;;;;;;;49.00;28.10;;;;;;;4.65;91.50;98595.36;271862;1268;22215;-87
2023/04/15 22:46:01;;;;;;;51.00;28.30;;;;;;;4.67;91.63;98600.92;270741;1258;22990;-89
2023/04/15 22:52:31;;;;;;;47.70;27.20;;;;;;;4.65;91.47;98605.11;270499;1268;22531;-87
2023/04/15 22:58:34;;;;;;;45.70;26.00;;;;;;;4.56;91.50;98614.02;269962;1267;22579;-87
2023/04/15 23:05:01;;;;;;;54.30;29.00;;;;;;;4.50;91.81;98620.96;270329;1269;24186;-87
2023/04/15 23:11:04;;;;;;;53.60;30.00;;;;;;;4.44;91.98;98637.11;271316;1263;23744;-88
2023/04/15 23:17:08;;;;;;;50.80;30.20;;;;;;;4.39;92.09;98645.66;270546;1269;23349;-87
2023/04/15 23:23:10;;;;;;;54.10;29.80;;;;;;;4.34;91.15;98647.34;269660;1267;22554;-86
2023/04/15 23:29:23;;;;;;;60.50;32.50;;;;;;;4.08;91.09;98645.64;269774;1267;22635;-86
2023/04/15 23:35:43;;;;;;;54.30;32.90;;;;;;;3.96;91.73;98646.42;270007;1266;22570;-87
2023/04/15 23:41:45;;;;;;;59.80;34.40;;;;;;;3.91;92.38;98648.73;270380;1268;22563;-86
2023/04/15 23:48:08;;;;;;;68.90;37.20;;;;;;;3.83;92.16;98650.48;273291;1257;22176;-88
2023/04/15 23:54:11;;;;;;;60.90;35.40;;;;;;;3.70;92.21;98656.16;271064;1260;22868;-86
